Time;durP1;ratioP1;P1;durP2;ratioP2;P2;SDS_P1;SDS_P2;PMS_P1;PMS_P2;Temp;Humidity;BMP_temperature;BMP_pressure;BME280_temperature;BME280_humidity;BME280_pressure;Samples;Min_cycle;Max_cycle;Signal;HPM_P1;HPM_P2
2023/01/05 00:02:14;;;;;;;1.20;0.90;;;10.20;99.90;;;;;;4974104;28;20183;-32
2023/01/05 00:04:40;;;;;;;0.73;0.50;;;10.20;99.90;;;;;;4991517;28;20172;-33
2023/01/05 00:07:05;;;;;;;1.10;0.60;;;10.20;99.90;;;;;;4994180;28;20176;-33
2023/01/05 00:09:31;;;;;;;0.40;0.40;;;10.20;99.90;;;;;;4990590;28;20204;-32
2023/01/05 00:23:06;;;;;;;0.90;0.40;;;10.20;99.90;;;;;;4991315;28;20181;-32
2023/01/05 00:25:37;;;;;;;0.67;0.40;;;10.30;99.90;;;;;;4973387;28;20306;-33
2023/01/05 00:28:03;;;;;;;0.60;0.53;;;10.20;99.90;;;;;;4992945;28;20202;-32
2023/01/05 00:30:34;;;;;;;0.50;0.50;;;10.20;99.90;;;;;;4995061;28;20183;-32
2023/01/05 00:33:00;;;;;;;0.80;0.60;;;10.20;99.90;;;;;;4977579;28;20180;-32
2023/01/05 00:35:28;;;;;;;0.63;0.60;;;10.20;99.90;;;;;;4977336;28;20194;-30
2023/01/05 00:37:54;;;;;;;0.60;0.60;;;10.20;99.90;;;;;;4976856;28;20181;-30
2023/01/05 00:40:21;;;;;;;1.33;0.50;;;10.20;99.90;;;;;;4981683;28;20217;-31
2023/01/05 00:42:47;;;;;;;0.50;0.50;;;10.20;99.90;;;;;;4995031;28;20234;-30
2023/01/05 00:45:15;;;;;;;0.40;0.40;;;10.20;99.90;;;;;;4977280;28;20311;-31
2023/01/05 00:47:41;;;;;;;0.40;0.40;;;10.10;99.90;;;;;;4994521;28;20184;-31
2023/01/05 00:50:09;;;;;;;0.47;0.40;;;10.10;99.90;;;;;;4977208;28;20287;-31
2023/01/05 00:52:35;;;;;;;0.33;0.33;;;10.00;99.90;;;;;;4976943;28;20181;-31
2023/01/05 00:55:01;;;;;;;0.40;0.40;;;10.00;99.90;;;;;;4977243;28;20188;-31
2023/01/05 00:57:27;;;;;;;1.50;0.43;;;9.90;99.90;;;;;;4977220;28;20183;-31
2023/01/05 00:59:54;;;;;;;0.40;0.40;;;9.90;99.90;;;;;;4961043;28;20210;-31
2023/01/05 01:02:20;;;;;;;0.40;0.40;;;9.90;99.90;;;;;;4977007;28;20273;-32
2023/01/05 01:04:45;;;;;;;0.43;0.43;;;9.80;99.90;;;;;;4960841;28;20180;-31
2023/01/05 01:07:11;;;;;;;0.30;0.30;;;9.80;99.90;;;;;;4960564;28;20187;-30
2023/01/05 01:09:37;;;;;;;0.47;0.43;;;9.80;99.90;;;;;;4976851;28;20202;-31
2023/01/05 01:12:04;;;;;;;0.63;0.60;;;9.90;99.90;;;;;;4976954;28;20183;-31
2023/01/05 01:14:30;;;;;;;0.60;0.60;;;9.90;99.90;;;;;;4976751;28;20179;-32
2023/01/05 01:16:56;;;;;;;0.80;0.37;;;9.90;99.90;;;;;;4994501;28;20184;-32
2023/01/05 01:19:24;;;;;;;0.30;0.30;;;9.90;99.90;;;;;;4992920;28;20307;-32
2023/01/05 01:21:49;;;;;;;0.30;0.30;;;9.90;99.90;;;;;;4976681;28;20230;-31
2023/01/05 01:24:19;;;;;;;0.30;0.27;;;9.90;99.90;;;;;;4960813;28;20188;-30
2023/01/05 01:26:45;;;;;;;0.47;0.40;;;9.90;99.90;;;;;;4960488;28;20669;-31
2023/01/05 01:29:10;;;;;;;0.50;0.50;;;9.90;99.90;;;;;;4960202;28;20199;-31
2023/01/05 01:31:36;;;;;;;0.40;0.40;;;9.90;99.90;;;;;;4993439;28;20268;-32
2023/01/05 01:34:03;;;;;;;0.73;0.40;;;9.90;99.90;;;;;;4976045;28;20176;-32
2023/01/05 01:36:28;;;;;;;0.30;0.30;;;9.90;99.90;;;;;;4976181;28;20732;-30
2023/01/05 01:38:54;;;;;;;0.40;0.40;;;10.00;99.90;;;;;;4991649;28;20294;-31
2023/01/05 01:41:20;;;;;;;0.47;0.30;;;10.00;99.90;;;;;;4992218;28;20192;-31
2023/01/05 01:43:52;;;;;;;0.20;0.20;;;10.10;99.90;;;;;;4976348;28;20250;-31
2023/01/05 01:46:21;;;;;;;0.70;0.30;;;10.10;99.90;;;;;;4976309;28;20205;-32
2023/01/05 01:48:59;;;;;;;0.30;0.30;;;10.10;99.90;;;;;;4976028;28;20211;-31
2023/01/05 01:51:34;;;;;;;1.33;0.50;;;10.10;99.90;;;;;;4976191;28;20184;-31
2023/01/05 01:54:09;;;;;;;0.30;0.30;;;10.20;99.90;;;;;;4975965;28;20248;-31
2023/01/05 01:56:44;;;;;;;0.23;0.23;;;10.20;99.90;;;;;;4976126;28;20214;-30
2023/01/05 01:59:11;;;;;;;1.27;0.50;;;10.20;99.90;;;;;;4975932;28;20227;-31
2023/01/05 02:01:37;;;;;;;1.63;0.40;;;10.10;99.90;;;;;;4959913;28;20252;-31
2023/01/05 02:04:03;;;;;;;0.30;0.30;;;10.10;99.90;;;;;;4975986;28;20182;-31
2023/01/05 02:06:29;;;;;;;0.30;0.30;;;10.10;99.90;;;;;;4974929;28;20205;-31
2023/01/05 02:08:55;;;;;;;1.13;0.37;;;10.10;99.90;;;;;;4959344;28;20202;-31
2023/01/05 02:11:43;;;;;;;1.43;0.43;;;10.20;99.90;;;;;;4975891;28;20180;-32
2023/01/05 02:14:32;;;;;;;0.30;0.30;;;10.10;99.90;;;;;;4993446;28;20190;-31
2023/01/05 02:17:07;;;;;;;0.20;0.20;;;10.10;99.90;;;;;;4959584;28;20260;-30
2023/01/05 02:19:58;;;;;;;0.30;0.30;;;10.10;99.90;;;;;;4975453;28;20203;-32
2023/01/05 02:22:54;;;;;;;0.20;0.20;;;10.10;99.90;;;;;;4959862;28;20188;-31
2023/01/05 02:25:51;;;;;;;0.90;0.50;;;10.10;99.90;;;;;;4975335;28;20232;-31
2023/01/05 02:28:37;;;;;;;0.20;0.20;;;10.10;99.90;;;;;;4974907;28;20196;-32
2023/01/05 02:31:10;;;;;;;0.20;0.20;;;10.10;99.90;;;;;;4993125;28;20168;-31
2023/01/05 02:34:06;;;;;;;0.27;0.27;;;10.10;99.90;;;;;;4959510;28;20182;-31
2023/01/05 02:36:55;;;;;;;0.20;0.20;;;10.20;99.90;;;;;;4975219;28;20206;-30
2023/01/05 02:39:28;;;;;;;0.30;0.30;;;10.20;99.90;;;;;;4988503;28;20270;-30
2023/01/05 02:42:25;;;;;;;0.30;0.30;;;10.20;99.90;;;;;;4975128;28;20272;-30
2023/01/05 02:44:52;;;;;;;0.43;0.43;;;10.20;99.90;;;;;;4975112;28;20185;-31
2023/01/05 02:47:26;;;;;;;0.30;0.30;;;10.20;99.90;;;;;;4990889;28;20219;-33
2023/01/05 02:50:20;;;;;;;0.30;0.30;;;10.20;99.90;;;;;;4975273;28;20208;-32
2023/01/05 02:53:17;;;;;;;0.80;0.40;;;10.20;99.90;;;;;;4991811;28;20176;-31
2023/01/05 02:55:50;;;;;;;0.27;0.27;;;10.30;99.90;;;;;;4958078;28;20192;-31
2023/01/05 02:58:32;;;;;;;0.30;0.30;;;10.40;99.90;;;;;;4975111;28;20205;-31
2023/01/05 03:01:08;;;;;;;0.20;0.20;;;10.40;99.90;;;;;;4974812;28;20180;-31
2023/01/05 03:03:58;;;;;;;0.77;0.40;;;10.50;99.90;;;;;;4975059;28;20275;-31
2023/01/05 03:06:34;;;;;;;0.50;0.30;;;10.40;99.90;;;;;;4974591;28;20207;-32
2023/01/05 03:09:03;;;;;;;0.37;0.37;;;10.50;99.90;;;;;;4974333;28;20230;-31
2023/01/05 03:14:41;;;;;;;0.33;0.33;;;10.50;99.90;;;;;;4974278;28;20180;-31
2023/01/05 03:17:11;;;;;;;0.40;0.40;;;10.50;99.90;;;;;;4974891;28;20173;-31
2023/01/05 03:19:44;;;;;;;0.30;0.30;;;10.50;99.90;;;;;;4974186;28;20196;-30
2023/01/05 03:36:49;;;;;;;0.30;0.30;;;10.60;99.90;;;;;;4977522;28;20223;-30
2023/01/05 03:39:18;;;;;;;0.27;0.27;;;10.60;99.90;;;;;;4957875;28;20214;-30
2023/01/05 03:41:47;;;;;;;0.30;0.30;;;10.60;99.90;;;;;;4974255;28;20243;-31
2023/01/05 03:44:13;;;;;;;0.20;0.20;;;10.50;99.90;;;;;;4973924;28;20226;-31
2023/01/05 03:46:40;;;;;;;0.30;0.30;;;10.50;99.90;;;;;;4990385;28;20204;-31
2023/01/05 03:49:06;;;;;;;0.33;0.30;;;10.50;99.90;;;;;;4989562;28;20213;-31
2023/01/05 03:51:32;;;;;;;0.30;0.30;;;10.50;99.90;;;;;;4991591;28;20172;-30
2023/01/05 03:53:58;;;;;;;0.30;0.30;;;10.50;99.90;;;;;;4990154;28;20184;-32
2023/01/05 03:56:24;;;;;;;0.30;0.30;;;10.50;99.90;;;;;;4958287;28;20659;-31
2023/01/05 03:58:53;;;;;;;0.40;0.40;;;10.50;99.90;;;;;;4973636;28;20211;-32
2023/01/05 04:01:19;;;;;;;0.30;0.30;;;10.50;99.90;;;;;;4973842;28;20275;-31
2023/01/05 04:03:45;;;;;;;0.30;0.30;;;10.50;99.90;;;;;;4973628;28;20263;-31
2023/01/05 04:06:11;;;;;;;0.30;0.30;;;10.60;99.90;;;;;;4957199;28;20300;-31
2023/01/05 04:08:38;;;;;;;0.60;0.30;;;10.60;99.90;;;;;;4973566;28;20219;-31
2023/01/05 04:11:19;;;;;;;0.30;0.30;;;10.60;99.90;;;;;;4957706;28;20180;-30
2023/01/05 04:13:53;;;;;;;0.20;0.20;;;10.60;99.90;;;;;;4973779;28;20238;-30
2023/01/05 04:16:20;;;;;;;0.20;0.20;;;10.60;99.90;;;;;;4973485;28;20192;-32
2023/01/05 04:18:48;;;;;;;0.30;0.30;;;10.60;99.90;;;;;;4957603;28;20203;-32
2023/01/05 04:21:17;;;;;;;0.50;0.30;;;10.50;99.90;;;;;;4973726;28;20180;-32
2023/01/05 04:23:43;;;;;;;0.30;0.30;;;10.50;99.90;;;;;;4957721;28;20180;-31
2023/01/05 04:26:09;;;;;;;0.30;0.30;;;10.50;99.90;;;;;;4957566;28;20211;-31
2023/01/05 04:28:36;;;;;;;0.40;0.40;;;10.50;99.90;;;;;;4973734;28;20234;-31
2023/01/05 04:31:02;;;;;;;0.47;0.30;;;10.50;99.90;;;;;;4973501;28;20196;-32
2023/01/05 04:33:29;;;;;;;0.40;0.40;;;10.50;99.90;;;;;;4973422;28;20264;-31
2023/01/05 04:35:56;;;;;;;0.30;0.30;;;10.50;99.90;;;;;;4957718;28;20193;-30
2023/01/05 04:38:25;;;;;;;0.30;0.30;;;10.50;99.90;;;;;;4974112;28;20208;-31
2023/01/05 04:40:52;;;;;;;0.40;0.40;;;10.50;99.90;;;;;;4973418;28;20295;-31
2023/01/05 04:43:22;;;;;;;0.40;0.40;;;10.50;99.90;;;;;;4957847;28;20188;-32
2023/01/05 04:45:48;;;;;;;0.33;0.33;;;10.50;99.90;;;;;;4957596;28;20208;-31
2023/01/05 04:48:16;;;;;;;0.60;0.60;;;10.50;99.90;;;;;;4973311;28;20215;-32
2023/01/05 04:50:42;;;;;;;0.70;0.70;;;10.40;99.90;;;;;;4973621;28;20184;-31
2023/01/05 04:53:08;;;;;;;1.60;0.60;;;10.40;99.90;;;;;;4989571;28;20238;-30
2023/01/05 04:55:37;;;;;;;0.63;0.50;;;10.40;99.90;;;;;;4973437;28;20181;-31
2023/01/05 04:58:04;;;;;;;0.50;0.50;;;10.40;99.90;;;;;;4956991;28;20267;-31
2023/01/05 05:00:33;;;;;;;0.77;0.40;;;10.40;99.90;;;;;;4973115;28;20192;-31
2023/01/05 05:03:01;;;;;;;0.50;0.50;;;10.40;99.90;;;;;;4957635;28;20184;-32
2023/01/05 05:05:27;;;;;;;0.50;0.50;;;10.40;99.90;;;;;;4957093;28;20215;-32
2023/01/05 05:07:55;;;;;;;0.60;0.60;;;10.30;99.90;;;;;;4989016;28;20179;-32
2023/01/05 05:10:25;;;;;;;0.93;0.50;;;10.30;99.90;;;;;;4973516;28;20171;-31
2023/01/05 05:12:51;;;;;;;0.40;0.40;;;10.30;99.90;;;;;;4973099;28;20183;-31
2023/01/05 05:15:17;;;;;;;1.60;0.47;;;10.30;99.90;;;;;;4991215;28;20649;-31
2023/01/05 05:17:47;;;;;;;0.33;0.33;;;10.30;99.90;;;;;;4976801;28;20216;-31
2023/01/05 05:20:15;;;;;;;0.33;0.33;;;10.30;99.90;;;;;;4976591;28;20194;-31
2023/01/05 05:22:41;;;;;;;0.30;0.30;;;10.30;99.90;;;;;;4992706;28;20638;-31
2023/01/05 05:25:09;;;;;;;0.53;0.43;;;10.30;99.90;;;;;;4976498;28;20208;-30
2023/01/05 05:27:40;;;;;;;0.20;0.20;;;10.30;99.90;;;;;;4976678;28;20279;-32
2023/01/05 05:30:06;;;;;;;0.90;0.40;;;10.20;99.90;;;;;;4976419;28;20296;-32
2023/01/05 05:32:32;;;;;;;0.30;0.30;;;10.20;99.90;;;;;;4976536;28;20199;-31
2023/01/05 05:34:58;;;;;;;0.30;0.30;;;10.20;99.90;;;;;;4994011;28;20176;-32
2023/01/05 05:37:24;;;;;;;0.47;0.30;;;10.10;99.90;;;;;;4976355;28;20218;-32
2023/01/05 05:39:50;;;;;;;0.40;0.40;;;10.10;99.90;;;;;;4993675;28;20188;-30
2023/01/05 05:42:15;;;;;;;0.50;0.50;;;10.10;99.90;;;;;;4993938;28;20207;-32
2023/01/05 05:44:41;;;;;;;0.60;0.60;;;10.20;99.90;;;;;;4976307;28;20208;-31
2023/01/05 05:47:07;;;;;;;0.50;0.40;;;10.20;99.90;;;;;;4993338;28;20240;-31
2023/01/05 05:49:33;;;;;;;1.07;0.50;;;10.20;99.90;;;;;;4975837;28;20243;-31
2023/01/05 05:51:58;;;;;;;1.73;0.60;;;10.20;99.90;;;;;;4993692;28;20168;-31
2023/01/05 05:54:24;;;;;;;0.60;0.40;;;10.20;99.90;;;;;;4976223;28;20184;-32
2023/01/05 05:56:50;;;;;;;1.40;0.50;;;10.20;99.90;;;;;;4976054;28;20188;-31
2023/01/05 05:59:16;;;;;;;0.50;0.50;;;10.20;99.90;;;;;;4959758;28;20214;-31
2023/01/05 06:01:41;;;;;;;0.60;0.60;;;10.20;99.90;;;;;;4975992;28;20200;-31
2023/01/05 06:04:07;;;;;;;0.67;0.67;;;10.20;99.90;;;;;;4975461;28;20219;-31
2023/01/05 06:06:33;;;;;;;0.50;0.50;;;10.20;99.90;;;;;;4993492;28;20211;-31
2023/01/05 06:08:58;;;;;;;0.87;0.50;;;10.20;99.90;;;;;;4975569;28;20315;-31
2023/01/05 06:11:24;;;;;;;0.53;0.50;;;10.20;99.90;;;;;;4975934;28;20174;-32
2023/01/05 06:13:50;;;;;;;0.40;0.40;;;10.30;99.90;;;;;;4959642;28;20609;-30
2023/01/05 06:16:16;;;;;;;2.50;1.90;;;10.30;99.90;;;;;;4993286;28;20208;-31
2023/01/05 06:18:41;;;;;;;0.93;0.80;;;10.30;99.90;;;;;;4991487;28;20243;-32
2023/01/05 06:21:08;;;;;;;0.50;0.50;;;10.30;99.90;;;;;;4975591;28;20193;-31
2023/01/05 06:23:33;;;;;;;0.50;0.50;;;10.30;99.90;;;;;;4992805;28;20227;-31
2023/01/05 06:25:59;;;;;;;1.37;0.50;;;10.30;99.90;;;;;;4975774;28;20211;-30
2023/01/05 06:28:25;;;;;;;0.57;0.40;;;10.40;99.90;;;;;;4975536;28;20211;-31
2023/01/05 06:30:50;;;;;;;0.43;0.43;;;10.30;99.90;;;;;;4975338;28;20184;-31
2023/01/05 06:33:16;;;;;;;0.60;0.60;;;10.30;99.90;;;;;;4992893;28;20184;-31
2023/01/05 06:35:42;;;;;;;1.70;1.30;;;10.30;99.90;;;;;;4975447;28;20185;-31
2023/01/05 06:38:09;;;;;;;1.07;0.70;;;10.30;99.90;;;;;;4974825;28;20203;-30
2023/01/05 06:40:37;;;;;;;1.97;0.50;;;10.40;99.90;;;;;;4992331;28;20189;-31
2023/01/05 06:43:03;;;;;;;0.57;0.40;;;10.40;99.90;;;;;;4975544;28;20189;-32
2023/01/05 06:45:29;;;;;;;0.30;0.30;;;10.40;99.90;;;;;;4974994;28;20203;-31
2023/01/05 06:47:56;;;;;;;0.30;0.30;;;10.40;99.90;;;;;;4975183;28;20176;-31
2023/01/05 06:50:22;;;;;;;0.50;0.50;;;10.40;99.90;;;;;;4975277;28;20181;-31
2023/01/05 06:52:47;;;;;;;0.80;0.57;;;10.40;99.90;;;;;;4974691;28;20235;-31
2023/01/05 06:55:13;;;;;;;0.37;0.30;;;10.40;99.90;;;;;;4991362;28;20186;-32
2023/01/05 06:57:39;;;;;;;0.30;0.30;;;10.40;99.90;;;;;;4974887;28;20260;-32
2023/01/05 07:00:07;;;;;;;0.83;0.40;;;10.40;99.90;;;;;;4974739;28;20196;-32
2023/01/05 07:02:33;;;;;;;0.40;0.40;;;10.40;99.90;;;;;;4992409;28;20174;-32
2023/01/05 07:04:59;;;;;;;1.07;0.40;;;10.40;99.90;;;;;;4974537;28;20197;-32
2023/01/05 07:07:25;;;;;;;0.27;0.27;;;10.40;99.90;;;;;;4990622;28;20211;-33
2023/01/05 07:09:50;;;;;;;0.50;0.50;;;10.40;99.90;;;;;;4990554;28;20201;-33
2023/01/05 07:12:16;;;;;;;0.40;0.40;;;10.30;99.90;;;;;;4974791;28;20184;-32
2023/01/05 07:14:42;;;;;;;0.90;0.40;;;10.30;99.90;;;;;;4992326;28;20210;-32
2023/01/05 07:17:08;;;;;;;0.40;0.40;;;10.30;99.90;;;;;;4974655;28;20217;-31
2023/01/05 07:19:34;;;;;;;0.77;0.63;;;10.30;99.90;;;;;;4991460;28;20198;-32
2023/01/05 07:22:00;;;;;;;1.00;0.90;;;10.30;99.90;;;;;;4958576;28;20182;-32
2023/01/05 07:24:26;;;;;;;0.87;0.87;;;10.30;99.90;;;;;;4974577;28;20204;-32
2023/01/05 07:26:51;;;;;;;0.73;0.50;;;10.20;99.90;;;;;;4974556;28;20274;-33
2023/01/05 07:29:18;;;;;;;0.50;0.50;;;10.20;99.90;;;;;;4991642;28;20205;-32
2023/01/05 07:31:43;;;;;;;0.40;0.40;;;10.20;99.90;;;;;;4973940;28;20263;-32
2023/01/05 07:34:10;;;;;;;0.40;0.40;;;10.20;99.90;;;;;;4974490;28;20332;-32
2023/01/05 07:36:35;;;;;;;0.40;0.40;;;10.20;99.90;;;;;;4991612;28;20189;-31
2023/01/05 07:39:01;;;;;;;0.40;0.40;;;10.10;99.90;;;;;;4973171;28;20212;-31
2023/01/05 07:41:27;;;;;;;1.57;0.80;;;10.10;99.90;;;;;;4990428;28;20191;-32
2023/01/05 07:43:52;;;;;;;1.87;1.00;;;10.10;99.90;;;;;;4991829;28;20230;-32
2023/01/05 07:46:18;;;;;;;0.70;0.60;;;10.10;99.90;;;;;;4991611;28;20259;-33
2023/01/05 07:48:44;;;;;;;0.60;0.60;;;10.10;99.90;;;;;;4991513;28;20204;-31
2023/01/05 07:51:10;;;;;;;0.53;0.50;;;10.10;99.90;;;;;;4991824;28;20181;-32
2023/01/05 07:53:37;;;;;;;1.47;0.50;;;10.10;99.90;;;;;;4991374;28;20179;-31
2023/01/05 07:56:05;;;;;;;0.53;0.47;;;10.10;99.90;;;;;;4991684;28;20207;-31
2023/01/05 07:58:31;;;;;;;0.50;0.50;;;10.00;99.90;;;;;;4973962;28;20291;-31
2023/01/05 08:01:12;;;;;;;0.80;0.40;;;10.00;99.90;;;;;;4973832;28;20191;-32
2023/01/05 08:03:38;;;;;;;1.03;0.60;;;10.00;99.90;;;;;;4991497;28;20211;-32
2023/01/05 08:06:12;;;;;;;1.00;0.80;;;10.00;99.90;;;;;;4973824;28;20257;-32
2023/01/05 08:08:38;;;;;;;1.00;0.90;;;9.90;99.90;;;;;;4973895;28;20206;-32
2023/01/05 08:11:09;;;;;;;1.10;0.70;;;9.90;99.90;;;;;;4973648;28;20182;-31
2023/01/05 08:16:19;;;;;;;10.00;5.63;;;9.90;99.90;;;;;;4991719;28;20243;-34
2023/01/05 08:18:45;;;;;;;12.63;5.60;;;9.90;99.90;;;;;;4990993;28;20682;-33
2023/01/05 08:21:11;;;;;;;4.53;3.50;;;9.90;99.90;;;;;;4991138;28;20195;-34
2023/01/05 08:23:37;;;;;;;8.53;3.93;;;10.00;99.90;;;;;;4991273;28;20180;-33
2023/01/05 08:26:12;;;;;;;5.40;2.30;;;10.00;99.90;;;;;;4991248;28;20231;-32
2023/01/05 08:28:38;;;;;;;2.30;1.97;;;10.00;99.90;;;;;;4973297;28;20203;-33
2023/01/05 08:31:07;;;;;;;4.70;1.10;;;10.00;99.90;;;;;;4990910;28;20188;-32
2023/01/05 08:33:33;;;;;;;2.03;1.30;;;10.00;99.90;;;;;;4991066;28;20180;-34
2023/01/05 08:35:59;;;;;;;1.17;1.07;;;10.10;99.90;;;;;;4990187;28;20192;-33
2023/01/05 08:38:25;;;;;;;5.70;2.37;;;10.10;99.90;;;;;;4999548;28;20223;-33
2023/01/05 08:40:52;;;;;;;3.97;3.03;;;10.10;99.90;;;;;;4984811;28;20189;-32
2023/01/05 08:43:18;;;;;;;2.53;1.90;;;10.10;99.90;;;;;;5010931;28;20206;-35
2023/01/05 08:45:49;;;;;;;1.40;1.30;;;10.10;99.90;;;;;;4992817;28;20243;-32
2023/01/05 08:48:15;;;;;;;1.33;1.23;;;10.10;99.90;;;;;;4993410;28;20609;-31
2023/01/05 08:50:41;;;;;;;1.47;1.33;;;10.10;99.90;;;;;;4979030;28;20189;-33
2023/01/05 08:53:06;;;;;;;2.03;1.50;;;10.20;99.90;;;;;;5014348;28;20173;-34
2023/01/05 08:55:32;;;;;;;1.20;1.00;;;10.20;99.90;;;;;;4980339;28;20184;-33
2023/01/05 08:57:58;;;;;;;4.17;1.60;;;10.30;99.90;;;;;;4996664;28;20186;-31
2023/01/05 09:00:24;;;;;;;2.07;1.33;;;10.40;99.90;;;;;;5014297;28;20203;-32
2023/01/05 09:02:49;;;;;;;2.73;1.53;;;10.50;99.90;;;;;;5014688;28;20210;-34
2023/01/05 09:05:15;;;;;;;2.50;1.67;;;10.60;99.90;;;;;;4993540;28;20212;-32
2023/01/05 09:07:41;;;;;;;3.57;1.30;;;10.60;99.90;;;;;;4994098;28;20192;-31
2023/01/05 09:10:07;;;;;;;1.70;1.40;;;10.70;99.90;;;;;;4976810;28;20189;-32
2023/01/05 09:12:37;;;;;;;3.20;1.33;;;10.70;99.90;;;;;;4960935;28;20185;-33
2023/01/05 09:15:05;;;;;;;1.50;1.40;;;10.80;99.90;;;;;;4994214;28;20666;-31
2023/01/05 09:17:32;;;;;;;1.63;1.17;;;10.80;99.90;;;;;;4976744;28;20189;-31
2023/01/05 09:19:57;;;;;;;1.63;0.83;;;10.90;99.90;;;;;;4976748;28;20202;-33
2023/01/05 09:22:23;;;;;;;3.63;1.40;;;10.90;99.90;;;;;;4976614;28;20276;-33
2023/01/05 09:24:49;;;;;;;2.50;0.90;;;11.00;99.90;;;;;;4960627;28;20181;-33
2023/01/05 09:27:15;;;;;;;2.10;1.00;;;11.00;99.90;;;;;;4994084;28;20244;-31
2023/01/05 09:29:40;;;;;;;3.73;1.10;;;11.10;99.90;;;;;;4975789;28;20231;-32
2023/01/05 09:32:06;;;;;;;1.87;1.10;;;11.10;99.90;;;;;;4976633;28;20187;-31
2023/01/05 09:34:32;;;;;;;2.07;1.30;;;11.00;99.90;;;;;;4994047;28;20179;-32
2023/01/05 09:36:58;;;;;;;2.33;0.93;;;11.00;99.90;;;;;;4993926;28;20183;-33
2023/01/05 09:39:24;;;;;;;1.30;0.80;;;11.00;99.90;;;;;;4975851;28;20222;-34
2023/01/05 09:41:54;;;;;;;1.63;1.00;;;11.00;99.90;;;;;;4976184;28;20267;-35
2023/01/05 09:44:40;;;;;;;3.40;0.90;;;11.00;99.90;;;;;;4976158;28;20216;-31
2023/01/05 09:47:14;;;;;;;3.10;1.00;;;11.00;99.90;;;;;;4960109;28;20585;-34
2023/01/05 09:49:40;;;;;;;1.07;0.97;;;11.00;99.90;;;;;;4976108;28;20208;-34
2023/01/05 09:52:09;;;;;;;1.87;1.03;;;11.00;99.90;;;;;;4976188;28;20239;-33
2023/01/05 09:54:37;;;;;;;2.03;1.13;;;11.00;99.90;;;;;;4975868;28;20281;-33
2023/01/05 09:57:06;;;;;;;2.10;0.90;;;11.00;99.90;;;;;;4976099;28;20332;-33
2023/01/05 09:59:43;;;;;;;1.63;1.20;;;11.00;99.90;;;;;;4959180;28;20215;-34
2023/01/05 10:02:17;;;;;;;1.60;1.10;;;11.00;99.90;;;;;;4975660;28;20202;-32
2023/01/05 10:04:44;;;;;;;0.90;0.80;;;11.00;99.90;;;;;;4960099;28;20193;-34
2023/01/05 10:07:24;;;;;;;2.37;1.00;;;11.00;99.90;;;;;;4975660;28;20210;-33
2023/01/05 10:09:54;;;;;;;1.80;0.90;;;11.00;99.90;;;;;;4972379;28;20218;-33
2023/01/05 10:15:29;;;;;;;2.53;1.07;;;11.00;99.90;;;;;;4972639;28;20191;-33
2023/01/05 10:17:55;;;;;;;1.83;0.90;;;11.00;99.90;;;;;;4956451;28;20281;-32
2023/01/05 10:20:45;;;;;;;1.00;0.90;;;11.00;99.90;;;;;;4956082;28;20268;-34
2023/01/05 10:23:47;;;;;;;1.67;0.80;;;11.00;99.90;;;;;;4956282;28;20186;-32
2023/01/05 10:26:16;;;;;;;4.50;1.20;;;11.00;99.90;;;;;;4973601;28;20213;-31
2023/01/05 10:29:08;;;;;;;3.03;1.03;;;11.10;99.90;;;;;;4955663;28;20207;-32
2023/01/05 10:31:37;;;;;;;4.73;1.10;;;11.10;99.90;;;;;;4956214;28;20171;-33
2023/01/05 10:34:10;;;;;;;2.17;1.30;;;11.10;99.90;;;;;;4956172;28;20183;-34
2023/01/05 10:36:58;;;;;;;4.73;1.13;;;11.10;99.90;;;;;;4986752;28;20187;-32
2023/01/05 10:39:45;;;;;;;3.20;1.20;;;11.10;99.90;;;;;;4958601;28;20208;-34
2023/01/05 10:42:30;;;;;;;4.40;1.40;;;11.20;99.90;;;;;;4959154;28;20182;-32
2023/01/05 10:45:02;;;;;;;4.70;1.37;;;11.20;99.90;;;;;;4975250;28;20179;-34
2023/01/05 10:47:30;;;;;;;7.10;1.60;;;11.20;99.90;;;;;;4974995;28;20193;-31
2023/01/05 10:49:58;;;;;;;3.27;1.30;;;11.20;99.90;;;;;;4992341;28;20209;-33
2023/01/05 10:52:23;;;;;;;6.77;1.80;;;11.20;99.90;;;;;;4975019;28;20197;-31
2023/01/05 10:55:00;;;;;;;6.77;2.00;;;11.30;99.90;;;;;;4974990;28;20214;-33
2023/01/05 10:57:29;;;;;;;8.07;2.00;;;11.30;99.90;;;;;;4975145;28;20243;-31
2023/01/05 10:59:56;;;;;;;6.30;1.80;;;11.30;99.90;;;;;;4974657;28;20279;-33
2023/01/05 11:02:28;;;;;;;7.47;2.10;;;11.30;99.90;;;;;;4992340;28;20179;-33
2023/01/05 11:05:22;;;;;;;8.80;2.03;;;11.30;99.90;;;;;;4974362;28;20200;-32
2023/01/05 11:08:00;;;;;;;5.73;1.57;;;11.20;99.90;;;;;;4950826;28;20183;-33
2023/01/05 11:10:28;;;;;;;9.03;2.27;;;11.20;99.90;;;;;;4975026;28;20207;-33
2023/01/05 11:13:24;;;;;;;6.07;1.40;;;11.20;99.90;;;;;;4973660;28;20178;-31
2023/01/05 11:16:07;;;;;;;6.80;1.93;;;11.20;99.90;;;;;;4974613;28;20268;-32
2023/01/05 11:18:35;;;;;;;6.23;2.00;;;11.20;99.90;;;;;;4974286;28;20236;-32
2023/01/05 11:21:13;;;;;;;4.70;1.70;;;11.20;99.90;;;;;;4974376;28;20200;-32
2023/01/05 11:23:41;;;;;;;8.80;2.00;;;11.30;99.90;;;;;;4974707;28;20258;-33
2023/01/05 11:26:21;;;;;;;6.63;1.90;;;11.30;99.90;;;;;;4990586;28;20238;-33
2023/01/05 11:28:56;;;;;;;7.93;1.80;;;11.30;99.90;;;;;;4991533;28;20192;-32
2023/01/05 11:31:22;;;;;;;11.60;2.20;;;11.40;99.90;;;;;;4974258;28;20185;-34
2023/01/05 11:33:56;;;;;;;7.63;2.07;;;11.40;99.90;;;;;;4974506;28;20242;-33
2023/01/05 11:36:21;;;;;;;8.20;2.47;;;11.40;99.90;;;;;;4992161;28;20198;-33
2023/01/05 11:38:53;;;;;;;12.00;2.20;;;11.40;99.90;;;;;;4991211;28;20205;-34
2023/01/05 11:41:21;;;;;;;7.90;2.10;;;11.40;99.90;;;;;;4974326;28;20185;-34
2023/01/05 11:43:48;;;;;;;7.93;2.20;;;11.50;99.90;;;;;;4974354;28;20194;-34
2023/01/05 11:46:15;;;;;;;6.50;2.07;;;11.50;99.90;;;;;;4991628;28;20214;-32
2023/01/05 11:48:56;;;;;;;10.20;2.30;;;11.50;99.90;;;;;;4991440;28;20205;-32
2023/01/05 11:51:35;;;;;;;8.10;2.50;;;11.50;99.90;;;;;;4974092;28;20210;-33
2023/01/05 11:54:01;;;;;;;7.40;2.07;;;11.50;99.90;;;;;;4991398;28;20204;-32
2023/01/05 11:56:27;;;;;;;6.43;2.67;;;11.50;99.90;;;;;;4974020;28;20210;-34
2023/01/05 11:58:56;;;;;;;5.70;2.00;;;11.60;99.90;;;;;;4991031;28;20216;-34
2023/01/05 12:01:56;;;;;;;8.93;2.87;;;11.60;99.90;;;;;;4974015;28;20254;-33
2023/01/05 12:05:01;;;;;;;8.50;2.57;;;11.60;99.90;;;;;;4973805;28;20252;-34
2023/01/05 12:07:41;;;;;;;8.33;2.40;;;11.60;99.90;;;;;;4970162;28;20222;-32
2023/01/05 12:10:22;;;;;;;7.63;2.20;;;11.60;99.90;;;;;;4973097;28;20224;-33
2023/01/05 12:13:14;;;;;;;9.47;2.60;;;11.60;99.90;;;;;;4973988;28;20185;-32
2023/01/05 12:15:53;;;;;;;9.80;2.90;;;11.60;99.90;;;;;;4991335;28;20648;-32
2023/01/05 12:18:51;;;;;;;8.63;3.03;;;11.60;99.90;;;;;;4989943;28;20269;-32
2023/01/05 12:21:35;;;;;;;10.27;3.33;;;11.50;99.90;;;;;;4973130;28;20188;-32
2023/01/05 12:24:04;;;;;;;10.10;2.23;;;11.60;99.90;;;;;;4975503;28;20333;-33
2023/01/05 12:26:49;;;;;;;11.43;2.80;;;11.60;99.90;;;;;;4961451;28;20207;-34
2023/01/05 12:29:32;;;;;;;8.53;2.63;;;11.60;99.90;;;;;;4977215;28;20209;-34
2023/01/05 12:32:16;;;;;;;5.13;2.00;;;11.60;99.90;;;;;;4977655;28;20175;-31
2023/01/05 12:35:13;;;;;;;6.20;2.00;;;11.70;99.90;;;;;;4961487;28;20186;-31
2023/01/05 12:38:17;;;;;;;3.60;1.47;;;11.70;99.90;;;;;;4994341;28;20187;-33
2023/01/05 12:41:11;;;;;;;6.73;2.10;;;11.70;99.90;;;;;;4977347;28;20181;-32
2023/01/05 12:44:04;;;;;;;5.20;2.00;;;11.70;99.90;;;;;;4994450;28;20187;-33
2023/01/05 12:46:39;;;;;;;6.40;1.70;;;11.70;99.90;;;;;;4977569;28;20214;-34
2023/01/05 12:49:23;;;;;;;5.07;1.50;;;11.70;99.90;;;;;;4977107;28;20320;-33
2023/01/05 12:52:00;;;;;;;4.63;1.83;;;11.70;99.90;;;;;;4994834;28;20216;-32
2023/01/05 12:55:01;;;;;;;6.47;1.60;;;11.60;99.90;;;;;;4994825;28;20265;-33
2023/01/05 12:57:43;;;;;;;22.40;10.33;;;11.60;99.90;;;;;;4990784;28;20281;-33
2023/01/05 13:00:18;;;;;;;3.90;1.77;;;11.60;99.90;;;;;;4977092;28;20183;-33
2023/01/05 13:03:09;;;;;;;3.87;1.53;;;11.60;99.90;;;;;;4994986;28;20179;-34
2023/01/05 13:05:49;;;;;;;3.93;1.37;;;11.60;99.90;;;;;;4977165;28;20210;-33
2023/01/05 13:08:39;;;;;;;3.33;1.30;;;11.60;99.90;;;;;;4976616;28;20193;-32
2023/01/05 13:11:35;;;;;;;4.13;1.40;;;11.60;99.90;;;;;;4994351;28;20183;-32
2023/01/05 13:14:23;;;;;;;7.33;1.70;;;11.60;99.90;;;;;;4975620;28;20190;-33
2023/01/05 13:17:02;;;;;;;3.20;1.57;;;11.60;99.90;;;;;;4994233;28;20234;-33
2023/01/05 13:19:46;;;;;;;3.57;1.53;;;11.60;99.90;;;;;;4976502;28;20210;-33
2023/01/05 13:22:22;;;;;;;3.30;1.37;;;11.60;99.90;;;;;;4993057;28;20232;-32
2023/01/05 13:25:02;;;;;;;6.47;1.83;;;11.50;99.90;;;;;;4976859;28;20304;-34
2023/01/05 13:27:29;;;;;;;5.47;1.40;;;11.50;99.90;;;;;;4992736;28;20211;-32
2023/01/05 13:29:58;;;;;;;2.57;1.60;;;11.50;99.90;;;;;;4993799;28;20251;-34
2023/01/05 13:32:51;;;;;;;5.43;1.90;;;11.50;99.90;;;;;;4994064;28;20198;-33
2023/01/05 13:35:43;;;;;;;3.83;1.97;;;11.50;99.90;;;;;;4959432;28;20194;-34
2023/01/05 13:38:33;;;;;;;16.97;8.73;;;11.50;99.90;;;;;;4980910;28;20228;-32
2023/01/05 13:41:17;;;;;;;7.40;4.00;;;11.60;99.90;;;;;;4992919;28;20213;-34
2023/01/05 13:44:04;;;;;;;6.07;2.93;;;11.60;99.90;;;;;;4959791;28;20173;-33
2023/01/05 13:46:32;;;;;;;5.20;3.20;;;11.60;99.90;;;;;;4976280;28;20290;-32